| time (UTC) | temp C | wind direction | speed KPH | gust KPH | rain 1hr cm | rain 24hr cm | rain mn cm | humidity % | barometer mb |
| 20260510043019 | 10 | 185 | 0.0 | 0.0 | 0.03 | 0.28 | 0.28 | 99 | 1010.6 |
| 20260510041512 | 10 | 185 | 0.0 | 0.0 | 0.00 | 0.25 | 0.25 | 98 | 1010.6 |
| 20260510040014 | 10 | 185 | 0.0 | 0.0 | 0.00 | 0.25 | 0.25 | 98 | 1010.7 |
| 20260510034514 | 10 | 185 | 0.0 | 0.0 | 0.00 | 0.25 | 0.25 | 98 | 1010.7 |
| 20260510033012 | 11 | 185 | 0.0 | 0.0 | 0.00 | 0.25 | 0.25 | 98 | 1010.7 |
| 20260510031522 | 11 | 185 | 0.0 | 0.0 | 0.00 | 0.25 | 0.25 | 98 | 1010.8 |
| 20260510030019 | 11 | 185 | 0.0 | 0.0 | 0.00 | 0.25 | 0.25 | 97 | 1010.5 |
| 20260510024510 | 11 | 185 | 0.0 | 0.0 | 0.00 | 0.25 | 0.25 | 97 | 1010.6 |
| 20260510023007 | 11 | 185 | 0.0 | 3.2 | 0.00 | 0.25 | 0.25 | 97 | 1010.5 |
| 20260510021508 | 12 | 185 | 0.0 | 0.0 | 0.00 | 0.25 | 0.25 | 97 | 1010.4 |
| 20260510020010 | 12 | 185 | 0.0 | 0.0 | 0.00 | 0.25 | 0.25 | 96 | 1010.2 |
| 20260510014505 | 12 | 185 | 0.0 | 0.0 | 0.00 | 0.25 | 0.25 | 95 | 1010.0 |
| 20260510013008 | 12 | 185 | 0.0 | 0.0 | 0.00 | 0.25 | 0.25 | 95 | 1010.0 |
| 20260510011604 | 13 | 185 | 0.0 | 3.2 | 0.00 | 0.25 | 0.25 | 94 | 1010.0 |
| 20260510010001 | 13 | 185 | 0.0 | 0.0 | 0.00 | 0.25 | 0.25 | 92 | 1009.8 |
| 20260510004602 | 13 | 185 | 0.0 | 0.0 | 0.00 | 0.25 | 0.25 | 92 | 1009.7 |
| 20260510004501 | 13 | 185 | 0.0 | 0.0 | 0.00 | 0.25 | 0.25 | 92 | 1009.7 |
| 20260510003120 | 13 | 185 | 0.0 | 0.0 | 0.00 | 0.25 | 0.25 | 91 | 1009.4 |
| 20260510003004 | 13 | 185 | 0.0 | 0.0 | 0.00 | 0.25 | 0.25 | 91 | 1009.4 |
| 20260510001500 | 14 | 185 | 0.0 | 0.0 | 0.00 | 0.25 | 0.25 | 89 | 1009.3 |
| 20260510000001 | 14 | 181 | 0.0 | 0.0 | 0.00 | 0.25 | 0.25 | 87 | 1009.2 |
| 20260509234615 | 15 | 165 | 0.0 | 0.0 | 0.00 | 0.25 | 0.25 | 85 | 1009.1 |
| 20260509233059 | 15 | 75 | 0.0 | 4.8 | 0.00 | 0.25 | 0.25 | 84 | 1009.0 |
| 20260509231558 | 16 | 144 | 0.0 | 4.8 | 0.00 | 0.25 | 0.25 | 82 | 1009.1 |
| 20260509224558 | 17 | 211 | 0.0 | 6.4 | 0.00 | 0.25 | 0.25 | 77 | 1009.1 |
| 20260509223101 | 17 | 162 | 0.0 | 6.4 | 0.00 | 0.25 | 0.25 | 76 | 1009.0 |
| 20260509221557 | 17 | 163 | 0.0 | 4.8 | 0.00 | 0.25 | 0.25 | 76 | 1009.0 |
| 20260509220055 | 17 | 226 | 0.0 | 3.2 | 0.00 | 0.25 | 0.25 | 77 | 1009.2 |
| 20260509214553 | 16 | 34 | 0.0 | 4.8 | 0.00 | 0.25 | 0.25 | 82 | 1009.3 |
| 20260509213058 | 16 | 39 | 1.6 | 6.4 | 0.00 | 0.25 | 0.25 | 81 | 1009.5 |
| 20260509211601 | 16 | 80 | 0.0 | 1.6 | 0.00 | 0.25 | 0.25 | 83 | 1009.2 |
| 20260509210055 | 16 | 81 | 0.0 | 3.2 | 0.00 | 0.25 | 0.25 | 84 | 1009.4 |
| 20260509204552 | 16 | 28 | 1.6 | 6.4 | 0.00 | 0.25 | 0.25 | 81 | 1009.5 |
| 20260509203046 | 16 | 343 | 1.6 | 6.4 | 0.00 | 0.25 | 0.25 | 79 | 1009.8 |
| 20260509201547 | 17 | 17 | 3.2 | 6.4 | 0.00 | 0.25 | 0.25 | 78 | 1009.8 |
| 20260509200053 | 17 | 70 | 0.0 | 4.8 | 0.00 | 0.25 | 0.25 | 80 | 1009.9 |
| 20260509194546 | 17 | 208 | 0.0 | 6.4 | 0.00 | 0.25 | 0.25 | 80 | 1009.9 |
| 20260509193043 | 16 | 185 | 0.0 | 4.8 | 0.00 | 0.25 | 0.25 | 84 | 1010.0 |
| 20260509191538 | 16 | 231 | 0.0 | 3.2 | 0.00 | 0.25 | 0.25 | 89 | 1010.1 |
| 20260509190042 | 15 | 169 | 1.6 | 6.4 | 0.03 | 0.25 | 0.25 | 92 | 1010.3 |
| 20260509184536 | 14 | 150 | 0.0 | 3.2 | 0.05 | 0.25 | 0.25 | 93 | 1010.7 |
| 20260509183057 | 13 | 243 | 0.0 | 0.0 | 0.05 | 0.25 | 0.25 | 94 | 1011.1 |
| 20260509181543 | 13 | 246 | 0.0 | 0.0 | 0.05 | 0.25 | 0.25 | 91 | 1011.2 |
| 20260509180032 | 13 | 248 | 0.0 | 0.0 | 0.03 | 0.23 | 0.23 | 89 | 1011.3 |
| 20260509174537 | 13 | 236 | 0.0 | 3.2 | 0.00 | 0.20 | 0.20 | 87 | 1011.2 |
| 20260509173033 | 13 | 284 | 0.0 | 3.2 | 0.00 | 0.20 | 0.20 | 87 | 1011.4 |
| 20260509171530 | 13 | 244 | 0.0 | 4.8 | 0.03 | 0.20 | 0.20 | 88 | 1011.5 |
| 20260509170029 | 13 | 182 | 0.0 | 6.4 | 0.10 | 0.20 | 0.20 | 89 | 1011.2 |
| 20260509164528 | 13 | 319 | 0.0 | 4.8 | 0.15 | 0.20 | 0.20 | 90 | 1011.0 |
| 20260509163031 | 13 | 306 | 0.0 | 3.2 | 0.20 | 0.20 | 0.20 | 91 | 1011.0 |
| 20260509161526 | 13 | 257 | 0.0 | 3.2 | 0.18 | 0.18 | 0.18 | 87 | 1011.4 |
| 20260509160025 | 14 | 259 | 0.0 | 3.2 | 0.10 | 0.10 | 0.10 | 85 | 1011.5 |
| 20260509154526 | 14 | 229 | 0.0 | 6.4 | 0.05 | 0.05 | 0.05 | 83 | 1011.8 |
| 20260509153024 | 15 | 209 | 3.2 | 9.7 | 0.00 | 0.00 | 0.00 | 76 | 1012.1 |
| 20260509151524 | 15 | 326 | 1.6 | 11.3 | 0.00 | 0.00 | 0.00 | 74 | 1011.9 |
| 20260509150022 | 16 | 206 | 4.8 | 12.9 | 0.00 | 0.00 | 0.00 | 71 | 1011.9 |
| 20260509144529 | 16 | 277 | 1.6 | 16.1 | 0.00 | 0.00 | 0.00 | 72 | 1011.6 |
| 20260509143020 | 16 | 173 | 0.0 | 11.3 | 0.00 | 0.00 | 0.00 | 75 | 1011.6 |
| 20260509141518 | 16 | 163 | 3.2 | 12.9 | 0.00 | 0.00 | 0.00 | 75 | 1011.4 |
| 20260509140014 | 15 | 158 | 0.0 | 3.2 | 0.00 | 0.00 | 0.00 | 80 | 1011.0 |
| 20260509134511 | 15 | 58 | 0.0 | 4.8 | 0.00 | 0.00 | 0.00 | 82 | 1011.1 |
| 20260509133013 | 14 | 26 | 1.6 | 4.8 | 0.00 | 0.00 | 0.00 | 82 | 1011.1 |
| 20260509131510 | 14 | 40 | 1.6 | 3.2 | 0.00 | 0.00 | 0.00 | 83 | 1011.1 |
| 20260509130008 | 13 | 113 | 0.0 | 3.2 | 0.00 | 0.00 | 0.00 | 82 | 1011.1 |
| 20260509124507 | 13 | 50 | 0.0 | 0.0 | 0.00 | 0.00 | 0.00 | 83 | 1011.2 |
| 20260509123004 | 13 | 158 | 0.0 | 1.6 | 0.00 | 0.00 | 0.00 | 84 | 1011.0 |
| 20260509121605 | 12 | 152 | 0.0 | 1.6 | 0.00 | 0.00 | 0.00 | 83 | 1011.1 |
| 20260509121503 | 12 | 132 | 0.0 | 1.6 | 0.00 | 0.00 | 0.00 | 83 | 1011.0 |
| 20260509120058 | 12 | 100 | 0.0 | 3.2 | 0.00 | 0.00 | 0.00 | 83 | 1011.3 |
| 20260509114533 | 12 | 144 | 0.0 | 0.0 | 0.00 | 0.00 | 0.00 | 84 | 1011.0 |
| 20260509113038 | 12 | 143 | 0.0 | 0.0 | 0.00 | 0.00 | 0.00 | 85 | 1011.1 |
| 20260509111537 | 12 | 145 | 0.0 | 3.2 | 0.00 | 0.00 | 0.00 | 86 | 1010.9 |
| 20260509110034 | 11 | 146 | 0.0 | 3.2 | 0.00 | 0.00 | 0.00 | 87 | 1010.8 |
| 20260509104540 | 11 | 147 | 0.0 | 0.0 | 0.00 | 0.00 | 0.00 | 87 | 1010.6 |
| 20260509103033 | 11 | 147 | 0.0 | 0.0 | 0.00 | 0.00 | 0.00 | 87 | 1010.5 |
| 20260509101533 | 10 | 147 | 0.0 | 1.6 | 0.00 | 0.00 | 0.00 | 86 | 1010.5 |
| 20260509100032 | 10 | 147 | 0.0 | 0.0 | 0.00 | 0.00 | 0.00 | 86 | 1010.6 |
| 20260509094533 | 10 | 147 | 0.0 | 0.0 | 0.00 | 0.00 | 0.00 | 86 | 1010.5 |
| 20260509093041 | 10 | 147 | 0.0 | 0.0 | 0.00 | 0.00 | 0.00 | 86 | 1010.7 |
| 20260509091525 | 10 | 148 | 0.0 | 0.0 | 0.00 | 0.00 | 0.00 | 85 | 1010.9 |
| 20260509090024 | 10 | 147 | 0.0 | 0.0 | 0.00 | 0.00 | 0.00 | 84 | 1010.9 |
| 20260509084532 | 10 | 147 | 0.0 | 0.0 | 0.00 | 0.00 | 0.00 | 85 | 1011.0 |
| 20260509083023 | 10 | 147 | 0.0 | 0.0 | 0.00 | 0.00 | 0.00 | 86 | 1011.1 |
| 20260509081535 | 10 | 147 | 0.0 | 0.0 | 0.00 | 0.00 | 0.00 | 86 | 1011.2 |
| 20260509080029 | 10 | 147 | 0.0 | 0.0 | 0.00 | 0.00 | 0.00 | 85 | 1011.3 |
| 20260509074517 | 10 | 147 | 0.0 | 0.0 | 0.00 | 0.00 | 0.00 | 83 | 1011.4 |
| 20260509073016 | 10 | 147 | 0.0 | 1.6 | 0.00 | 0.00 | 0.00 | 82 | 1011.5 |
| 20260509071518 | 10 | 148 | 0.0 | 3.2 | 0.00 | 0.00 | 0.00 | 82 | 1011.4 |
| 20260509070017 | 10 | 108 | 0.0 | 0.0 | 0.00 | 0.00 | 0.00 | 82 | 1011.2 |
| 20260509064513 | 10 | 108 | 0.0 | 0.0 | 0.00 | 0.00 | 0.00 | 82 | 1011.2 |
| 20260509063014 | 11 | 108 | 0.0 | 0.0 | 0.00 | 0.00 | 0.00 | 82 | 1011.2 |
| 20260509061516 | 11 | 159 | 0.0 | 3.2 | 0.00 | 0.00 | 0.00 | 83 | 1011.5 |
| 20260509060011 | 10 | 159 | 0.0 | 0.0 | 0.00 | 0.00 | 0.00 | 82 | 1011.7 |
| 20260509054505 | 11 | 159 | 0.0 | 0.0 | 0.00 | 0.00 | 0.00 | 81 | 1011.9 |
| 20260509053109 | 11 | 159 | 0.0 | 0.0 | 0.00 | 0.00 | 0.00 | 79 | 1012.1 |
| 20260509051603 | 11 | 159 | 0.0 | 0.0 | 0.00 | 0.00 | 0.00 | 77 | 1012.2 |
| 20260509050105 | 12 | 159 | 0.0 | 0.0 | 0.00 | 0.00 | 0.00 | 75 | 1012.2 |
| 20260509044557 | 12 | 159 | 0.0 | 0.0 | 0.00 | 0.00 | 0.00 | 73 | 1012.2 |